Time;durP1;ratioP1;P1;durP2;ratioP2;P2;SDS_P1;SDS_P2;PMS_P1;PMS_P2;Temp;Humidity;BMP_temperature;BMP_pressure;BME280_temperature;BME280_humidity;BME280_pressure;Samples;Min_cycle;Max_cycle;Signal;HPM_P1;HPM_P2
2022/04/02 00:01:50;;;;;;;2.35;1.30;;;11.50;46.90;;;;;;5032162;28;20410;-67
2022/04/02 00:04:17;;;;;;;1.98;1.20;;;11.70;56.70;;;;;;5032920;28;20049;-67
2022/04/02 00:06:44;;;;;;;1.40;1.25;;;;;;;;;;5051576;28;20049;-69
2022/04/02 00:09:11;;;;;;;1.55;1.20;;;11.80;56.80;;;;;;5052940;28;20048;-67
2022/04/02 00:11:38;;;;;;;1.70;1.40;;;;;;;;;;5051768;28;20178;-69
2022/04/02 00:14:04;;;;;;;1.60;1.30;;;11.40;50.10;;;;;;5053193;28;20525;-67
2022/04/02 00:16:31;;;;;;;1.40;1.20;;;11.50;56.40;;;;;;5051622;28;20060;-67
2022/04/02 00:19:00;;;;;;;1.52;1.20;;;11.70;56.10;;;;;;5051995;28;20478;-68
2022/04/02 00:21:27;;;;;;;1.95;1.42;;;11.50;56.40;;;;;;5041154;28;20057;-67
2022/04/02 00:23:54;;;;;;;2.22;1.27;;;;;;;;;;5031516;28;20052;-70
2022/04/02 00:26:21;;;;;;;2.58;1.05;;;11.50;56.50;;;;;;5031944;28;20057;-67
2022/04/02 00:28:49;;;;;;;1.35;1.23;;;11.60;56.70;;;;;;5031388;28;20054;-67
2022/04/02 00:31:17;;;;;;;1.17;1.08;;;;;;;;;;5032642;28;20056;-70
2022/04/02 00:33:45;;;;;;;1.10;1.00;;;11.60;56.60;;;;;;5031420;28;20045;-67
2022/04/02 00:36:13;;;;;;;1.40;1.10;;;12.20;56.90;;;;;;5033302;28;20046;-67
2022/04/02 00:38:40;;;;;;;1.33;1.10;;;11.50;56.60;;;;;;5032473;28;20056;-67
2022/04/02 00:41:07;;;;;;;1.13;1.00;;;11.80;56.40;;;;;;5032218;28;20103;-67
2022/04/02 00:43:35;;;;;;;1.30;1.20;;;11.60;56.10;;;;;;5031287;28;20053;-67
2022/04/02 00:46:02;;;;;;;1.50;1.10;;;10.90;56.30;;;;;;5031511;28;20083;-67
2022/04/02 00:48:29;;;;;;;2.20;1.10;;;11.80;55.00;;;;;;5031357;28;20060;-67
2022/04/02 00:50:57;;;;;;;1.25;1.10;;;11.70;46.90;;;;;;5031986;28;20056;-67
2022/04/02 00:53:25;;;;;;;1.63;1.10;;;11.70;56.50;;;;;;5043334;28;20060;-67
2022/04/02 00:55:52;;;;;;;1.88;1.10;;;11.90;56.70;;;;;;5052233;28;20059;-67
2022/04/02 00:58:19;;;;;;;1.35;1.00;;;;;;;;;;5051293;28;20114;-70
2022/04/02 01:00:46;;;;;;;1.23;0.98;;;11.70;56.50;;;;;;5050397;28;20404;-67
2022/04/02 01:03:14;;;;;;;1.55;1.10;;;;;;;;;;5052083;28;20090;-70
2022/04/02 01:05:41;;;;;;;1.20;1.10;;;;;;;;;;5051954;28;20136;-67
2022/04/02 01:08:08;;;;;;;1.50;1.10;;;;;;;;;;5050666;28;20049;-67
2022/04/02 01:10:38;;;;;;;1.63;1.10;;;11.80;46.90;;;;;;5049982;28;20053;-70
2022/04/02 01:13:06;;;;;;;1.92;1.10;;;;;;;;;;5050668;28;20053;-70
2022/04/02 01:15:32;;;;;;;1.20;1.00;;;11.90;56.30;;;;;;5051847;28;20399;-67
2022/04/02 01:18:00;;;;;;;1.10;1.00;;;;;;;;;;5050828;28;20052;-67
2022/04/02 01:20:27;;;;;;;1.13;1.00;;;11.80;53.60;;;;;;5051913;28;20409;-67
2022/04/02 01:22:55;;;;;;;2.10;1.05;;;11.80;52.80;;;;;;5050842;28;20056;-68
2022/04/02 01:25:22;;;;;;;0.85;0.85;;;11.80;56.30;;;;;;5049118;28;20053;-67
2022/04/02 01:27:49;;;;;;;2.15;1.10;;;11.90;56.40;;;;;;5051425;28;20055;-67
2022/04/02 01:30:16;;;;;;;1.50;1.15;;;11.90;51.30;;;;;;5051745;28;20408;-67
2022/04/02 01:32:43;;;;;;;1.50;1.10;;;11.80;56.00;;;;;;5051578;28;20049;-67
2022/04/02 01:35:10;;;;;;;1.17;1.00;;;12.10;48.20;;;;;;5050382;28;20053;-67
2022/04/02 01:37:37;;;;;;;1.42;1.08;;;12.00;56.10;;;;;;5048337;28;20055;-66
2022/04/02 01:40:06;;;;;;;1.60;1.10;;;12.00;46.90;;;;;;5051444;28;20582;-70
2022/04/02 01:42:33;;;;;;;1.15;1.00;;;12.00;56.40;;;;;;5050483;28;20056;-67
2022/04/02 01:45:00;;;;;;;1.75;1.20;;;12.00;56.30;;;;;;5050605;28;20045;-67
2022/04/02 01:47:27;;;;;;;1.20;1.00;;;11.90;54.30;;;;;;5050528;28;20055;-67
2022/04/02 01:49:54;;;;;;;1.20;1.10;;;11.90;56.10;;;;;;5050296;28;20529;-67
2022/04/02 01:52:21;;;;;;;1.08;0.95;;;12.00;47.70;;;;;;5037140;28;20096;-69
2022/04/02 01:54:48;;;;;;;1.08;0.98;;;12.00;56.10;;;;;;5030238;28;20058;-67
2022/04/02 01:57:16;;;;;;;1.90;1.27;;;12.00;51.20;;;;;;5030851;28;20427;-67
2022/04/02 01:59:44;;;;;;;1.63;1.10;;;11.90;55.40;;;;;;5029989;28;20064;-67
2022/04/02 02:02:11;;;;;;;1.15;0.90;;;12.40;55.90;;;;;;5031728;28;20394;-68
2022/04/02 02:04:38;;;;;;;1.30;1.00;;;11.90;56.00;;;;;;5031679;28;20413;-68
2022/04/02 02:07:06;;;;;;;1.75;1.20;;;;;;;;;;5031388;28;20053;-68
2022/04/02 02:09:33;;;;;;;1.25;1.10;;;12.00;54.20;;;;;;5031625;28;20049;-68
2022/04/02 02:12:00;;;;;;;1.10;0.90;;;11.90;56.00;;;;;;5032433;28;20409;-68
2022/04/02 02:14:28;;;;;;;1.45;1.00;;;11.80;47.60;;;;;;5033924;28;20060;-69
2022/04/02 02:16:55;;;;;;;1.27;1.10;;;12.00;56.00;;;;;;5033591;28;20061;-68
2022/04/02 02:19:22;;;;;;;1.00;0.90;;;11.90;55.90;;;;;;5035334;28;20055;-68
2022/04/02 02:21:48;;;;;;;1.27;1.10;;;12.00;56.30;;;;;;5035061;28;20717;-68
2022/04/02 02:24:15;;;;;;;1.30;1.10;;;12.00;51.30;;;;;;5036389;28;20079;-68
2022/04/02 02:26:42;;;;;;;1.75;1.00;;;12.40;56.10;;;;;;5034798;28;20053;-68
2022/04/02 02:29:08;;;;;;;1.30;1.00;;;12.30;56.30;;;;;;5035052;28;20053;-68
2022/04/02 02:31:36;;;;;;;1.08;0.90;;;12.00;46.70;;;;;;5033747;28;20548;-68
2022/04/02 02:36:49;;;;;;;1.08;0.90;;;12.00;56.30;;;;;;5033928;28;20042;-68
2022/04/02 02:39:16;;;;;;;1.90;1.13;;;12.00;50.70;;;;;;5035232;28;20053;-69
2022/04/02 02:41:42;;;;;;;1.08;0.90;;;12.10;56.30;;;;;;5033788;28;20057;-68
2022/04/02 02:44:09;;;;;;;1.02;0.93;;;12.00;56.00;;;;;;5034649;28;20504;-68
2022/04/02 02:46:37;;;;;;;1.40;1.05;;;12.00;51.40;;;;;;5033596;28;20071;-68
2022/04/02 02:49:04;;;;;;;1.60;1.48;;;12.10;50.30;;;;;;5035102;28;20053;-68
2022/04/02 02:51:30;;;;;;;1.15;1.05;;;12.00;55.90;;;;;;5033391;28;20405;-68
2022/04/02 02:53:57;;;;;;;1.50;1.00;;;;;;;;;;5034640;28;20049;-68
2022/04/02 02:56:24;;;;;;;1.20;1.00;;;12.10;52.30;;;;;;5034553;28;20482;-68
2022/04/02 02:58:51;;;;;;;1.55;1.05;;;12.00;56.10;;;;;;5034574;28;20071;-68
2022/04/02 03:01:17;;;;;;;1.20;1.00;;;12.10;56.00;;;;;;5034092;28;20060;-68
2022/04/02 03:03:45;;;;;;;1.38;1.00;;;12.10;50.10;;;;;;5033563;28;20045;-69
2022/04/02 03:06:13;;;;;;;1.90;1.05;;;;;;;;;;5034313;28;20508;-68
2022/04/02 03:08:40;;;;;;;1.20;1.10;;;;;;;;;;5034321;28;20419;-68
2022/04/02 03:11:07;;;;;;;1.40;1.10;;;12.10;50.90;;;;;;5032712;28;20504;-68
2022/04/02 03:13:33;;;;;;;0.98;0.88;;;12.20;56.00;;;;;;5035388;28;20123;-68
2022/04/02 03:16:02;;;;;;;1.42;0.90;;;12.00;56.20;;;;;;5052848;28;20057;-69
2022/04/02 03:18:32;;;;;;;0.98;0.90;;;;;;;;;;5053919;28;20448;-68
2022/04/02 03:21:00;;;;;;;1.75;1.00;;;12.10;49.70;;;;;;5052677;28;20049;-68
2022/04/02 03:23:27;;;;;;;1.13;0.95;;;12.10;50.40;;;;;;5053262;28;20049;-68
2022/04/02 03:25:53;;;;;;;1.23;1.00;;;12.10;56.20;;;;;;5053933;28;20417;-69
2022/04/02 03:28:20;;;;;;;1.15;0.90;;;12.10;56.00;;;;;;5050843;28;20064;-68
2022/04/02 03:30:47;;;;;;;1.70;1.00;;;;;;;;;;5052505;28;20048;-68
2022/04/02 03:33:14;;;;;;;2.53;1.20;;;12.00;50.30;;;;;;5053938;28;20115;-68
2022/04/02 03:35:42;;;;;;;1.27;1.00;;;12.10;52.90;;;;;;5052359;28;20486;-68
2022/04/02 03:38:13;;;;;;;1.15;1.00;;;12.60;56.20;;;;;;5053666;28;20049;-69
2022/04/02 03:40:41;;;;;;;1.10;0.90;;;12.50;56.10;;;;;;5053788;28;20405;-68
2022/04/02 03:43:07;;;;;;;2.55;1.05;;;11.50;51.60;;;;;;5053450;28;20049;-68
2022/04/02 03:45:34;;;;;;;2.08;1.02;;;12.00;55.80;;;;;;5051729;28;20053;-68
2022/04/02 03:48:01;;;;;;;1.42;1.00;;;;;;;;;;5053527;28;20045;-69
2022/04/02 03:50:28;;;;;;;1.75;1.17;;;12.20;55.80;;;;;;5052170;28;20397;-68
2022/04/02 03:52:55;;;;;;;1.10;1.00;;;12.20;55.90;;;;;;5052184;28;20061;-68
2022/04/02 03:55:23;;;;;;;2.17;1.00;;;12.10;55.90;;;;;;5051996;28;20499;-69
2022/04/02 03:57:50;;;;;;;1.23;1.00;;;12.10;56.10;;;;;;5052267;28;20063;-68
2022/04/02 04:00:18;;;;;;;1.25;1.02;;;12.00;56.00;;;;;;5050366;28;20063;-68
2022/04/02 04:02:45;;;;;;;1.13;1.02;;;12.10;56.00;;;;;;5052934;28;20048;-69
2022/04/02 04:05:12;;;;;;;1.27;1.00;;;;;;;;;;5053220;28;20071;-67
2022/04/02 04:07:38;;;;;;;1.00;0.90;;;12.10;56.00;;;;;;5053424;28;20405;-69
2022/04/02 04:10:06;;;;;;;1.92;1.00;;;12.10;55.80;;;;;;5051649;28;20049;-68
2022/04/02 04:12:34;;;;;;;1.92;1.02;;;12.10;55.70;;;;;;5053082;28;20052;-68
2022/04/02 04:15:00;;;;;;;1.58;1.00;;;12.20;56.10;;;;;;5051917;28;20065;-69
2022/04/02 04:17:27;;;;;;;0.95;0.80;;;12.10;55.80;;;;;;5050962;28;20500;-68
2022/04/02 04:19:54;;;;;;;1.90;1.00;;;;;;;;;;5052750;28;20055;-68
2022/04/02 04:22:21;;;;;;;2.10;0.90;;;12.20;56.10;;;;;;5051896;28;20057;-67
2022/04/02 04:24:48;;;;;;;1.00;0.90;;;;;;;;;;5046439;28;20585;-67
2022/04/02 04:27:15;;;;;;;2.50;1.00;;;12.00;55.90;;;;;;5032849;28;20483;-67
2022/04/02 04:29:43;;;;;;;1.33;0.98;;;12.10;56.00;;;;;;5032212;28;20060;-67
2022/04/02 04:32:10;;;;;;;1.58;0.98;;;;;;;;;;5033798;28;20056;-67
2022/04/02 04:34:37;;;;;;;1.15;0.90;;;12.20;50.50;;;;;;5031945;28;20516;-67
2022/04/02 04:37:04;;;;;;;1.70;1.25;;;12.20;56.10;;;;;;5031516;28;20057;-67
2022/04/02 04:39:31;;;;;;;1.60;1.20;;;;;;;;;;5031403;28;20409;-67
2022/04/02 04:41:58;;;;;;;2.20;1.17;;;12.10;56.10;;;;;;5031452;28;20482;-67
2022/04/02 04:44:25;;;;;;;1.40;0.98;;;;;;;;;;5031284;28;20080;-68
2022/04/02 04:46:53;;;;;;;2.33;1.23;;;12.20;56.00;;;;;;5031340;28;20065;-67
2022/04/02 04:49:20;;;;;;;1.70;1.00;;;12.10;55.60;;;;;;5032550;28;20092;-67
2022/04/02 04:51:47;;;;;;;1.40;1.30;;;12.10;51.80;;;;;;5031100;28;20067;-67
2022/04/02 04:54:14;;;;;;;1.10;1.00;;;12.60;56.10;;;;;;5014526;28;20069;-67
2022/04/02 04:56:40;;;;;;;1.40;1.00;;;12.20;56.10;;;;;;5032283;28;20053;-67
2022/04/02 04:59:09;;;;;;;0.90;0.90;;;;;;;;;;5032164;28;20064;-69
2022/04/02 05:01:36;;;;;;;1.05;0.95;;;12.10;55.80;;;;;;5030896;28;20061;-67
2022/04/02 05:04:06;;;;;;;1.20;1.02;;;12.20;55.90;;;;;;5032200;28;20041;-67
2022/04/02 05:06:34;;;;;;;0.93;0.80;;;11.80;48.50;;;;;;5031334;28;20413;-67
2022/04/02 05:09:00;;;;;;;1.08;0.90;;;12.10;56.10;;;;;;5031268;28;20524;-67
2022/04/02 05:11:27;;;;;;;1.02;0.90;;;;;;;;;;5031730;28;20051;-70
2022/04/02 05:13:54;;;;;;;1.10;1.00;;;12.50;56.20;;;;;;5031289;28;20083;-67
2022/04/02 05:16:21;;;;;;;0.80;0.80;;;12.30;55.80;;;;;;5031696;28;20045;-67
2022/04/02 05:18:48;;;;;;;1.42;1.20;;;12.20;55.80;;;;;;5031052;28;20084;-67
2022/04/02 05:21:16;;;;;;;1.45;1.00;;;12.20;56.00;;;;;;5032754;28;20502;-67
2022/04/02 05:23:43;;;;;;;1.80;1.15;;;12.20;55.80;;;;;;5030811;28;20099;-67
2022/04/02 05:26:10;;;;;;;1.92;0.90;;;;;;;;;;5030840;28;20060;-70
2022/04/02 05:28:37;;;;;;;1.35;1.00;;;12.80;56.30;;;;;;5030935;28;20139;-67
2022/04/02 05:31:04;;;;;;;1.30;1.10;;;;;;;;;;5030531;28;20057;-67
2022/04/02 05:33:31;;;;;;;1.23;0.98;;;;;;;;;;5040088;28;20044;-67
2022/04/02 05:35:58;;;;;;;1.85;1.10;;;;;;;;;;5042170;28;20041;-67
2022/04/02 05:38:27;;;;;;;1.10;0.95;;;12.10;56.00;;;;;;5031006;28;20060;-68
2022/04/02 05:40:54;;;;;;;1.23;1.00;;;;;;;;;;5036177;28;20482;-68
2022/04/02 05:43:21;;;;;;;1.40;0.93;;;12.30;56.10;;;;;;5041135;28;20478;-67
2022/04/02 05:45:48;;;;;;;1.67;1.10;;;;;;;;;;5044252;28;20045;-67
2022/04/02 05:48:17;;;;;;;1.35;0.98;;;12.00;55.70;;;;;;5038307;28;20417;-67
2022/04/02 05:50:44;;;;;;;1.38;1.10;;;;;;;;;;5034699;28;20053;-67
2022/04/02 05:53:11;;;;;;;1.52;1.02;;;12.30;55.80;;;;;;5035854;28;20111;-67
2022/04/02 05:55:39;;;;;;;2.40;1.15;;;12.10;56.00;;;;;;5035775;28;20053;-67
2022/04/02 05:58:06;;;;;;;1.17;1.00;;;12.20;55.20;;;;;;5035683;28;20067;-68
2022/04/02 06:00:33;;;;;;;1.20;1.00;;;12.10;48.40;;;;;;5045775;28;20402;-68
2022/04/02 06:03:00;;;;;;;1.42;1.10;;;12.10;56.00;;;;;;5045014;28;20076;-66
2022/04/02 06:05:28;;;;;;;1.00;0.90;;;;;;;;;;5045122;28;20059;-70
2022/04/02 06:07:55;;;;;;;2.10;1.10;;;12.20;56.00;;;;;;5039936;28;20053;-67
2022/04/02 06:10:21;;;;;;;2.00;1.20;;;12.40;55.70;;;;;;5043511;28;20040;-68
2022/04/02 06:12:51;;;;;;;2.85;1.00;;;12.60;56.20;;;;;;5047645;28;20061;-67
2022/04/02 06:15:18;;;;;;;1.05;0.95;;;12.20;55.60;;;;;;5034112;28;20413;-67
2022/04/02 06:17:45;;;;;;;1.40;1.00;;;;;;;;;;5034502;28;20491;-71
2022/04/02 06:20:13;;;;;;;1.73;1.10;;;12.30;55.80;;;;;;5033749;28;20056;-68
2022/04/02 06:22:40;;;;;;;1.02;0.93;;;;;;;;;;5036465;28;20114;-68
2022/04/02 06:25:08;;;;;;;1.50;1.08;;;;;;;;;;5039514;28;20064;-70
2022/04/02 06:27:41;;;;;;;1.35;0.98;;;12.50;56.10;;;;;;5033937;28;20418;-67
2022/04/02 06:30:10;;;;;;;1.23;1.10;;;12.90;51.50;;;;;;5033739;28;20123;-66
2022/04/02 06:32:38;;;;;;;0.95;0.85;;;12.40;55.90;;;;;;5044382;28;20132;-68
2022/04/02 06:35:05;;;;;;;5.53;1.30;;;12.40;55.50;;;;;;5044129;28;20466;-67
2022/04/02 06:37:33;;;;;;;1.83;1.20;;;12.50;50.90;;;;;;5046302;28;20124;-68
2022/04/02 06:40:00;;;;;;;1.75;1.02;;;12.50;55.40;;;;;;5042284;28;20041;-67
2022/04/02 06:42:27;;;;;;;1.38;0.90;;;12.40;55.70;;;;;;5044782;28;20421;-68
2022/04/02 06:44:57;;;;;;;2.83;0.98;;;;;;;;;;5042095;28;20056;-70
2022/04/02 06:47:28;;;;;;;3.40;1.20;;;12.60;55.60;;;;;;5041856;28;20085;-66
2022/04/02 06:49:55;;;;;;;2.55;1.13;;;12.70;55.50;;;;;;5017336;28;20049;-67
2022/04/02 06:52:21;;;;;;;1.20;1.10;;;12.80;55.30;;;;;;5033468;28;20575;-67
2022/04/02 06:54:48;;;;;;;1.25;0.98;;;12.70;51.80;;;;;;5048086;28;20135;-67
2022/04/02 06:57:18;;;;;;;2.38;1.27;;;12.60;55.50;;;;;;5053494;28;20581;-67
2022/04/02 06:59:45;;;;;;;3.75;1.30;;;12.60;55.40;;;;;;5054420;28;20049;-67
2022/04/02 07:02:11;;;;;;;1.50;1.02;;;12.70;55.20;;;;;;5047164;28;20474;-67
2022/04/02 07:04:40;;;;;;;1.17;1.02;;;12.80;46.20;;;;;;5050498;28;20088;-70
2022/04/02 07:07:06;;;;;;;1.20;0.90;;;12.90;49.70;;;;;;5054351;28;20044;-68
2022/04/02 07:09:33;;;;;;;1.58;1.00;;;12.90;54.90;;;;;;5043314;28;20220;-67
2022/04/02 07:12:00;;;;;;;1.35;1.00;;;13.00;55.30;;;;;;5033050;28;20136;-67
2022/04/02 07:14:27;;;;;;;1.40;1.10;;;;;;;;;;5033024;28;20076;-68
2022/04/02 07:16:53;;;;;;;2.80;1.30;;;12.90;55.10;;;;;;5032951;28;20084;-67
2022/04/02 07:19:21;;;;;;;1.63;1.20;;;;;;;;;;5032984;28;20079;-67
2022/04/02 07:21:49;;;;;;;1.77;1.10;;;13.00;54.70;;;;;;5032773;28;20058;-67
2022/04/02 07:24:16;;;;;;;1.85;1.08;;;;;;;;;;5032967;28;20472;-67
2022/04/02 07:26:45;;;;;;;1.33;1.02;;;13.30;55.00;;;;;;5051403;28;20561;-67
2022/04/02 07:29:12;;;;;;;2.60;1.30;;;13.30;54.90;;;;;;5051954;28;20053;-69
2022/04/02 07:31:39;;;;;;;2.45;1.27;;;13.00;52.90;;;;;;5042560;28;20053;-68
2022/04/02 07:34:06;;;;;;;1.38;1.10;;;;;;;;;;5050596;28;20055;-68
2022/04/02 07:36:39;;;;;;;1.38;1.10;;;13.20;46.20;;;;;;5052312;28;20041;-68
2022/04/02 07:39:11;;;;;;;1.48;1.17;;;13.30;45.70;;;;;;5052603;28;20047;-68
2022/04/02 07:41:42;;;;;;;1.30;1.10;;;13.00;54.20;;;;;;5052044;28;20060;-68
2022/04/02 07:44:09;;;;;;;1.30;1.00;;;;;;;;;;5052506;28;20092;-68
2022/04/02 07:46:36;;;;;;;3.15;1.50;;;13.50;54.50;;;;;;5051115;28;20057;-68
2022/04/02 07:49:03;;;;;;;1.88;1.38;;;13.40;45.60;;;;;;5052714;28;20052;-69
2022/04/02 07:51:31;;;;;;;1.25;1.08;;;;;;;;;;5052263;28;20160;-67
2022/04/02 07:54:01;;;;;;;1.70;1.20;;;13.10;47.70;;;;;;5052097;28;20136;-68
2022/04/02 07:56:30;;;;;;;1.17;1.00;;;13.50;46.40;;;;;;5050657;28;20529;-67
2022/04/02 07:58:59;;;;;;;1.15;1.05;;;13.20;53.90;;;;;;5053190;28;20053;-67
2022/04/02 08:01:26;;;;;;;1.95;1.20;;;13.60;54.30;;;;;;5049766;28;20060;-67
2022/04/02 08:03:53;;;;;;;1.98;1.15;;;;;;;;;;5050382;28;20400;-67
2022/04/02 08:06:20;;;;;;;1.60;1.25;;;14.00;47.40;;;;;;5042262;28;20419;-69
2022/04/02 08:08:47;;;;;;;1.73;1.20;;;13.20;53.70;;;;;;5043500;28;20053;-69
2022/04/02 08:11:14;;;;;;;2.15;1.20;;;13.80;54.20;;;;;;5044128;28;20051;-69
2022/04/02 08:13:43;;;;;;;1.60;1.23;;;13.70;48.80;;;;;;5035717;28;20048;-69
2022/04/02 08:16:10;;;;;;;2.00;1.10;;;13.70;49.70;;;;;;5043334;28;20059;-69
2022/04/02 08:18:39;;;;;;;1.10;1.00;;;13.10;53.30;;;;;;5044873;28;20048;-70
2022/04/02 08:21:06;;;;;;;1.90;1.00;;;13.90;54.10;;;;;;5040578;28;20081;-69
2022/04/02 08:23:33;;;;;;;2.17;1.30;;;14.00;52.60;;;;;;5032935;28;20051;-69
2022/04/02 08:26:15;;;;;;;3.33;1.23;;;14.60;54.00;;;;;;5031568;28;20055;-69
2022/04/02 08:28:55;;;;;;;1.55;1.10;;;13.20;53.40;;;;;;5031943;28;20053;-69
2022/04/02 08:31:27;;;;;;;1.50;1.13;;;14.40;53.80;;;;;;5033490;28;20052;-69
2022/04/02 08:33:59;;;;;;;1.35;1.05;;;14.10;53.60;;;;;;5041334;28;21541;-69
2022/04/02 08:36:28;;;;;;;1.45;1.15;;;13.30;53.00;;;;;;5042325;28;20046;-69
2022/04/02 08:38:59;;;;;;;1.52;1.10;;;14.00;44.90;;;;;;5040344;28;20060;-68
2022/04/02 08:42:03;;;;;;;1.83;1.20;;;14.10;53.50;;;;;;5045744;28;20057;-69
2022/04/02 08:45:14;;;;;;;1.90;1.00;;;14.70;53.80;;;;;;5040832;28;20056;-70
2022/04/02 08:48:19;;;;;;;3.15;1.30;;;14.10;51.90;;;;;;4992626;28;20049;-69
2022/04/02 08:50:46;;;;;;;1.25;1.00;;;14.80;53.80;;;;;;4999516;28;20052;-69
2022/04/02 08:53:17;;;;;;;1.52;1.10;;;15.10;47.80;;;;;;5041487;28;20057;-69
2022/04/02 08:55:47;;;;;;;2.47;1.10;;;14.20;44.80;;;;;;5040228;28;20053;-69
2022/04/02 08:58:24;;;;;;;1.50;1.02;;;14.20;51.70;;;;;;5040162;28;20144;-69
2022/04/02 09:01:03;;;;;;;1.52;0.90;;;14.10;44.70;;;;;;5041480;28;20049;-69
2022/04/02 09:04:21;;;;;;;1.48;1.05;;;13.80;53.20;;;;;;5039737;28;20057;-67
2022/04/02 09:07:17;;;;;;;1.63;0.90;;;13.30;47.30;;;;;;5041811;28;20053;-67
2022/04/02 09:10:14;;;;;;;;;;;14.10;45.30;;;;;;5041738;28;20045;-68
2022/04/02 09:12:46;;;;;;;2.13;1.10;;;14.10;53.90;;;;;;5040953;28;20361;-68
2022/04/02 09:15:13;;;;;;;3.40;1.05;;;14.30;53.60;;;;;;5043777;28;20047;-69
2022/04/02 09:18:01;;;;;;;1.27;1.00;;;14.00;47.70;;;;;;5039601;28;20053;-68
2022/04/02 09:20:38;;;;;;;2.72;1.10;;;14.00;45.00;;;;;;5042332;28;20045;-68
2022/04/02 09:23:15;;;;;;;1.67;1.00;;;13.10;52.80;;;;;;5042551;28;20068;-69
2022/04/02 09:26:15;;;;;;;1.35;1.00;;;13.70;53.10;;;;;;5046591;28;20068;-68
2022/04/02 09:28:43;;;;;;;1.15;1.00;;;14.60;47.40;;;;;;5047391;28;20417;-68
2022/04/02 09:31:43;;;;;;;0.93;0.88;;;14.60;54.00;;;;;;5030931;28;20049;-68
2022/04/02 09:34:47;;;;;;;1.42;0.95;;;13.80;53.40;;;;;;5030816;28;20140;-68
2022/04/02 09:37:21;;;;;;;0.95;0.85;;;13.80;45.20;;;;;;5030935;28;20049;-67
2022/04/02 09:39:54;;;;;;;4.47;0.95;;;13.80;45.30;;;;;;5030752;28;20552;-67
2022/04/02 09:42:41;;;;;;;1.20;0.93;;;13.50;50.00;;;;;;5030730;28;20053;-68
2022/04/02 09:45:09;;;;;;;0.75;0.75;;;13.70;53.70;;;;;;5042361;28;20052;-69
2022/04/02 09:48:15;;;;;;;0.80;0.80;;;13.40;53.60;;;;;;5043850;28;20045;-68
2022/04/02 09:50:43;;;;;;;0.95;0.90;;;13.90;53.80;;;;;;5031652;28;20045;-68
2022/04/02 09:53:15;;;;;;;1.63;1.08;;;13.80;54.10;;;;;;5030402;28;20063;-68
2022/04/02 09:55:44;;;;;;;1.10;0.90;;;;;;;;;;5030648;28;20063;-68
2022/04/02 09:58:40;;;;;;;1.13;0.90;;;13.70;46.20;;;;;;5030359;28;20091;-68
2022/04/02 10:01:08;;;;;;;1.20;0.98;;;13.90;52.90;;;;;;5015080;28;20050;-68
2022/04/02 10:03:40;;;;;;;1.48;1.00;;;13.90;45.40;;;;;;5037654;28;20046;-67
2022/04/02 10:06:23;;;;;;;1.65;1.10;;;14.30;53.90;;;;;;5041209;28;20398;-69
2022/04/02 10:08:58;;;;;;;1.55;1.00;;;13.80;49.50;;;;;;5041161;28;20045;-68
2022/04/02 10:11:28;;;;;;;1.55;0.90;;;13.40;53.50;;;;;;5040477;28;20042;-68
2022/04/02 10:13:55;;;;;;;4.10;1.10;;;;;;;;;;5039533;28;20053;-67
2022/04/02 10:16:23;;;;;;;1.15;0.90;;;14.00;53.50;;;;;;5040369;28;20049;-68
2022/04/02 10:18:50;;;;;;;2.42;0.93;;;14.10;53.70;;;;;;5042830;28;20072;-68
2022/04/02 10:21:18;;;;;;;1.27;0.90;;;13.90;53.70;;;;;;5040255;28;20142;-68
2022/04/02 10:23:46;;;;;;;2.30;0.88;;;14.00;53.80;;;;;;5039124;28;20534;-69
2022/04/02 10:26:15;;;;;;;1.23;0.88;;;14.00;53.40;;;;;;5040675;28;20063;-68
2022/04/02 10:28:49;;;;;;;3.50;1.15;;;14.00;53.20;;;;;;5045540;28;20053;-68
2022/04/02 10:31:24;;;;;;;1.33;0.90;;;14.10;44.90;;;;;;5050205;28;20171;-68
2022/04/02 10:33:52;;;;;;;2.42;1.17;;;;;;;;;;5051458;28;20052;-69
2022/04/02 10:36:20;;;;;;;0.98;0.88;;;13.60;53.00;;;;;;5054944;28;20056;-69
2022/04/02 10:38:48;;;;;;;1.05;0.90;;;14.00;44.70;;;;;;5053958;28;20053;-69
2022/04/02 10:41:16;;;;;;;0.90;0.90;;;13.90;52.90;;;;;;5053531;28;20064;-69
2022/04/02 10:43:47;;;;;;;1.08;0.90;;;14.00;52.90;;;;;;5054599;28;20057;-69
2022/04/02 10:46:14;;;;;;;1.20;1.10;;;;;;;;;;5053419;28;20110;-68
2022/04/02 10:48:49;;;;;;;1.45;0.90;;;14.10;44.60;;;;;;5042727;28;20091;-69
2022/04/02 10:51:15;;;;;;;1.73;1.02;;;14.10;52.90;;;;;;5042596;28;20421;-68
2022/04/02 10:53:44;;;;;;;2.03;1.05;;;14.00;46.40;;;;;;5044152;28;20416;-68
2022/04/02 10:56:15;;;;;;;2.47;0.98;;;15.10;53.50;;;;;;5054053;28;20045;-68
2022/04/02 10:58:42;;;;;;;1.40;1.08;;;;;;;;;;5053308;28;20049;-68
2022/04/02 11:01:09;;;;;;;1.38;1.10;;;14.80;53.10;;;;;;5052815;28;20053;-68
2022/04/02 11:03:39;;;;;;;0.93;0.88;;;14.00;52.80;;;;;;5054483;28;20045;-68
2022/04/02 11:06:05;;;;;;;1.30;1.00;;;15.10;53.30;;;;;;5053592;28;20052;-67
2022/04/02 11:08:32;;;;;;;1.92;1.10;;;;;;;;;;5043541;28;20619;-67
2022/04/02 11:11:14;;;;;;;1.50;1.00;;;14.20;53.10;;;;;;5043257;28;20443;-67
2022/04/02 11:13:43;;;;;;;1.00;0.90;;;14.00;52.90;;;;;;5043670;28;20059;-68
2022/04/02 11:16:14;;;;;;;2.42;0.90;;;13.40;52.30;;;;;;5049990;28;20073;-67
2022/04/02 11:19:53;;;;;;;2.22;0.90;;;;;;;;;;5054517;28;20064;-67
2022/04/02 11:21:28;;;;;;;1.40;1.00;;;13.60;52.50;;;;;;5051045;28;20106;-67
2022/04/02 11:23:57;;;;;;;1.10;1.00;;;13.50;44.40;;;;;;5053121;28;20056;-68
2022/04/02 11:26:25;;;;;;;1.60;1.10;;;14.00;52.50;;;;;;5044306;28;20107;-67
2022/04/02 11:28:53;;;;;;;4.05;1.73;;;13.50;51.90;;;;;;5043241;28;20482;-68
2022/04/02 11:31:27;;;;;;;2.63;1.60;;;13.60;52.60;;;;;;5050706;28;20049;-68
2022/04/02 11:33:54;;;;;;;3.83;1.70;;;14.00;53.20;;;;;;5053147;28;20063;-68
2022/04/02 11:36:23;;;;;;;2.00;1.50;;;14.00;52.80;;;;;;5053762;28;20498;-67
2022/04/02 11:38:52;;;;;;;2.00;1.50;;;14.00;52.60;;;;;;5050957;28;20524;-67
2022/04/02 11:41:21;;;;;;;3.08;1.38;;;13.90;44.50;;;;;;5052469;28;20136;-68
2022/04/02 11:43:51;;;;;;;2.20;1.50;;;13.90;53.00;;;;;;5052471;28;20065;-68
2022/04/02 11:46:19;;;;;;;1.50;1.30;;;14.80;53.20;;;;;;5050838;28;20053;-67
2022/04/02 11:48:53;;;;;;;2.13;1.38;;;13.90;50.40;;;;;;5042559;28;20045;-67
2022/04/02 11:51:21;;;;;;;1.92;1.40;;;14.00;48.90;;;;;;5037874;28;20057;-68
2022/04/02 11:53:48;;;;;;;2.03;1.70;;;;;;;;;;5035167;28;20041;-68
2022/04/02 11:56:28;;;;;;;1.73;1.30;;;14.00;52.60;;;;;;5033694;28;20060;-67
2022/04/02 11:58:57;;;;;;;2.58;1.50;;;14.20;52.90;;;;;;5032425;28;20061;-65
2022/04/02 12:01:24;;;;;;;1.80;1.20;;;14.10;52.70;;;;;;5033326;28;20462;-65
2022/04/02 12:04:12;;;;;;;1.52;1.30;;;14.20;53.10;;;;;;5033432;28;20049;-64
2022/04/02 12:06:39;;;;;;;2.53;1.45;;;14.20;52.80;;;;;;5033653;28;20045;-68
2022/04/02 12:09:17;;;;;;;3.75;1.38;;;14.20;44.70;;;;;;5036980;28;20053;-66
2022/04/02 12:11:48;;;;;;;1.70;1.30;;;14.10;45.90;;;;;;5045070;28;20131;-67
2022/04/02 12:14:28;;;;;;;1.90;1.35;;;14.20;52.80;;;;;;5052105;28;20063;-68
2022/04/02 12:17:01;;;;;;;3.20;1.60;;;14.30;52.90;;;;;;5051587;28;20049;-67
2022/04/02 12:19:39;;;;;;;2.10;1.30;;;14.20;53.10;;;;;;5043796;28;20060;-68
2022/04/02 12:22:19;;;;;;;1.80;1.30;;;14.20;53.20;;;;;;5043933;28;20498;-68
2022/04/02 12:24:47;;;;;;;1.55;1.10;;;14.30;53.20;;;;;;5041767;28;20045;-68
2022/04/02 12:27:16;;;;;;;1.55;1.23;;;14.00;53.00;;;;;;5045726;28;20051;-68
2022/04/02 12:29:46;;;;;;;1.45;1.17;;;13.60;52.70;;;;;;5041637;28;20049;-65
2022/04/02 12:32:13;;;;;;;3.90;1.25;;;;;;;;;;5042916;28;20441;-65
2022/04/02 12:34:40;;;;;;;2.63;1.42;;;;;;;;;;5041645;28;20410;-64
2022/04/02 12:37:07;;;;;;;1.52;1.08;;;14.30;50.30;;;;;;5039801;28;20490;-66
2022/04/02 12:39:34;;;;;;;2.30;1.40;;;;;;;;;;5043009;28;20045;-64
2022/04/02 12:42:01;;;;;;;1.63;1.25;;;;;;;;;;5038087;28;20041;-66
2022/04/02 12:44:28;;;;;;;1.92;1.20;;;;;;;;;;5042573;28;20049;-66
2022/04/02 12:47:07;;;;;;;3.00;1.25;;;14.30;44.50;;;;;;5040834;28;20041;-66
2022/04/02 12:49:37;;;;;;;1.90;1.20;;;;;;;;;;5042023;28;20053;-67
2022/04/02 12:52:13;;;;;;;1.58;1.10;;;14.40;52.50;;;;;;5040405;28;20495;-66
2022/04/02 12:54:44;;;;;;;1.20;1.10;;;14.90;53.00;;;;;;5052253;28;20076;-67
2022/04/02 12:57:15;;;;;;;1.65;1.17;;;14.40;52.90;;;;;;5050128;28;20049;-65
2022/04/02 12:59:43;;;;;;;1.33;1.08;;;14.40;50.60;;;;;;5046103;28;20144;-65
2022/04/02 13:02:11;;;;;;;1.83;1.23;;;14.40;45.80;;;;;;5038739;28;20057;-66
2022/04/02 13:04:39;;;;;;;1.20;1.10;;;;;;;;;;5042976;28;20047;-65
2022/04/02 13:07:07;;;;;;;1.63;1.20;;;;;;;;;;5041076;28;20041;-66
2022/04/02 13:09:34;;;;;;;1.70;1.25;;;14.10;52.20;;;;;;5041598;28;20497;-65
2022/04/02 13:12:01;;;;;;;1.85;1.35;;;13.80;52.20;;;;;;5038548;28;20049;-65
2022/04/02 13:14:28;;;;;;;2.30;1.30;;;14.40;46.70;;;;;;5032201;28;20055;-66
2022/04/02 13:16:56;;;;;;;1.30;1.20;;;14.40;52.80;;;;;;5046933;28;20140;-65
2022/04/02 13:22:12;;;;;;;1.67;1.10;;;14.40;52.50;;;;;;5052054;28;20053;-66
2022/04/02 13:25:05;;;;;;;1.67;1.10;;;14.20;52.10;;;;;;5052113;28;20080;-66
2022/04/02 13:28:06;;;;;;;2.03;1.27;;;13.70;52.20;;;;;;5031085;28;20537;-65